sensor_id;sensor_type;location;lat;lon;timestamp;P1;P2;P0
77692;PMS5003;66984;47.404;18.836;2023-03-30T00:00:32;27.50;25.75;16.00
77692;PMS5003;66984;47.404;18.836;2023-03-30T00:01:46;27.50;24.00;16.00
77692;PMS5003;66984;47.404;18.836;2023-03-30T00:02:49;27.75;26.00;15.00
77692;PMS5003;66984;47.404;18.836;2023-03-30T00:03:55;28.00;25.00;16.00
77692;PMS5003;66984;47.404;18.836;2023-03-30T00:05:00;27.50;26.00;16.00
77692;PMS5003;66984;47.404;18.836;2023-03-30T00:06:04;26.00;24.00;16.00
77692;PMS5003;66984;47.404;18.836;2023-03-30T00:07:09;26.25;25.00;16.00
77692;PMS5003;66984;47.404;18.836;2023-03-30T00:08:12;26.50;24.50;16.00
77692;PMS5003;66984;47.404;18.836;2023-03-30T00:09:15;23.00;23.00;15.00
77692;PMS5003;66984;47.404;18.836;2023-03-30T00:10:18;25.75;23.50;15.00
77692;PMS5003;66984;47.404;18.836;2023-03-30T00:11:21;25.25;24.00;15.00
77692;PMS5003;66984;47.404;18.836;2023-03-30T00:12:25;27.00;24.00;16.00
77692;PMS5003;66984;47.404;18.836;2023-03-30T00:13:29;25.00;23.00;15.00
77692;PMS5003;66984;47.404;18.836;2023-03-30T00:14:33;22.00;21.00;13.50
77692;PMS5003;66984;47.404;18.836;2023-03-30T00:15:39;21.00;20.00;13.00
77692;PMS5003;66984;47.404;18.836;2023-03-30T00:16:42;20.00;17.00;12.00
77692;PMS5003;66984;47.404;18.836;2023-03-30T00:17:45;18.00;17.75;10.00
77692;PMS5003;66984;47.404;18.836;2023-03-30T00:18:49;15.00;15.00;8.00
77692;PMS5003;66984;47.404;18.836;2023-03-30T00:19:52;19.00;18.00;9.00
77692;PMS5003;66984;47.404;18.836;2023-03-30T00:20:55;18.00;17.50;7.00
77692;PMS5003;66984;47.404;18.836;2023-03-30T00:21:59;18.00;15.75;6.00
77692;PMS5003;66984;47.404;18.836;2023-03-30T00:23:03;18.50;15.00;6.00
77692;PMS5003;66984;47.404;18.836;2023-03-30T00:24:06;17.00;16.25;6.00
77692;PMS5003;66984;47.404;18.836;2023-03-30T00:25:09;16.00;15.00;6.00
77692;PMS5003;66984;47.404;18.836;2023-03-30T00:26:15;15.00;14.25;7.00
77692;PMS5003;66984;47.404;18.836;2023-03-30T00:27:19;14.00;13.50;5.25
77692;PMS5003;66984;47.404;18.836;2023-03-30T00:28:23;15.00;14.00;5.75
77692;PMS5003;66984;47.404;18.836;2023-03-30T00:29:27;15.00;13.50;6.00
77692;PMS5003;66984;47.404;18.836;2023-03-30T00:30:30;14.00;13.50;4.00
77692;PMS5003;66984;47.404;18.836;2023-03-30T00:31:33;14.00;13.00;6.00
77692;PMS5003;66984;47.404;18.836;2023-03-30T00:32:36;15.00;12.50;6.75
77692;PMS5003;66984;47.404;18.836;2023-03-30T00:33:39;16.25;15.25;7.75
77692;PMS5003;66984;47.404;18.836;2023-03-30T00:34:47;19.75;18.00;9.00
77692;PMS5003;66984;47.404;18.836;2023-03-30T00:35:51;18.00;17.00;9.00
77692;PMS5003;66984;47.404;18.836;2023-03-30T00:36:55;19.75;18.50;9.00
77692;PMS5003;66984;47.404;18.836;2023-03-30T00:37:59;20.00;18.00;9.00
77692;PMS5003;66984;47.404;18.836;2023-03-30T00:39:07;18.00;18.00;9.00
77692;PMS5003;66984;47.404;18.836;2023-03-30T00:40:13;21.25;19.00;10.75
77692;PMS5003;66984;47.404;18.836;2023-03-30T00:41:18;22.00;19.00;11.00
77692;PMS5003;66984;47.404;18.836;2023-03-30T00:42:21;21.50;20.00;11.25
77692;PMS5003;66984;47.404;18.836;2023-03-30T00:43:25;20.00;19.00;11.75
77692;PMS5003;66984;47.404;18.836;2023-03-30T00:46:13;22.00;21.00;9.00
77692;PMS5003;66984;47.404;18.836;2023-03-30T00:47:16;20.00;20.00;9.25
77692;PMS5003;66984;47.404;18.836;2023-03-30T00:48:23;20.25;20.00;12.00
77692;PMS5003;66984;47.404;18.836;2023-03-30T00:49:30;20.00;20.00;13.50
77692;PMS5003;66984;47.404;18.836;2023-03-30T00:50:37;22.00;19.25;13.00
77692;PMS5003;66984;47.404;18.836;2023-03-30T00:52:00;21.00;21.00;12.00
77692;PMS5003;66984;47.404;18.836;2023-03-30T00:53:06;21.00;20.00;11.00
77692;PMS5003;66984;47.404;18.836;2023-03-30T00:54:31;19.00;19.00;12.75
77692;PMS5003;66984;47.404;18.836;2023-03-30T00:55:34;20.00;19.75;12.00
77692;PMS5003;66984;47.404;18.836;2023-03-30T00:56:40;19.50;18.25;9.00
77692;PMS5003;66984;47.404;18.836;2023-03-30T00:57:43;18.25;18.00;9.00
77692;PMS5003;66984;47.404;18.836;2023-03-30T00:58:46;19.00;18.00;8.00
77692;PMS5003;66984;47.404;18.836;2023-03-30T00:59:50;20.00;18.50;8.00
77692;PMS5003;66984;47.404;18.836;2023-03-30T01:00:54;18.00;17.00;8.00
77692;PMS5003;66984;47.404;18.836;2023-03-30T01:01:59;19.25;18.50;9.00
77692;PMS5003;66984;47.404;18.836;2023-03-30T01:03:04;18.00;18.00;8.00
77692;PMS5003;66984;47.404;18.836;2023-03-30T01:04:13;18.00;18.00;8.00
77692;PMS5003;66984;47.404;18.836;2023-03-30T01:05:16;20.00;18.00;8.75
77692;PMS5003;66984;47.404;18.836;2023-03-30T01:06:19;17.25;16.00;9.00
77692;PMS5003;66984;47.404;18.836;2023-03-30T01:07:25;19.00;18.00;7.25
77692;PMS5003;66984;47.404;18.836;2023-03-30T01:08:28;16.00;16.00;6.00
77692;PMS5003;66984;47.404;18.836;2023-03-30T01:09:35;17.75;17.00;7.75
77692;PMS5003;66984;47.404;18.836;2023-03-30T01:10:38;17.00;16.00;7.00
77692;PMS5003;66984;47.404;18.836;2023-03-30T01:11:41;17.25;17.00;9.00
77692;PMS5003;66984;47.404;18.836;2023-03-30T01:12:45;17.00;17.00;9.00
77692;PMS5003;66984;47.404;18.836;2023-03-30T01:13:56;17.75;16.00;8.00
77692;PMS5003;66984;47.404;18.836;2023-03-30T01:15:02;17.00;17.00;7.00
77692;PMS5003;66984;47.404;18.836;2023-03-30T01:17:36;17.00;15.00;6.75
77692;PMS5003;66984;47.404;18.836;2023-03-30T01:39:40;17.00;17.00;6.00
77692;PMS5003;66984;47.404;18.836;2023-03-30T01:42:20;16.00;15.00;6.50
77692;PMS5003;66984;47.404;18.836;2023-03-30T01:44:02;18.00;17.00;7.00
77692;PMS5003;66984;47.404;18.836;2023-03-30T01:46:47;17.00;17.00;6.75
77692;PMS5003;66984;47.404;18.836;2023-03-30T01:47:55;15.25;14.50;7.00
77692;PMS5003;66984;47.404;18.836;2023-03-30T01:50:52;16.50;16.00;6.00
77692;PMS5003;66984;47.404;18.836;2023-03-30T01:52:00;16.25;15.00;7.00
77692;PMS5003;66984;47.404;18.836;2023-03-30T01:53:15;16.00;14.00;6.00
77692;PMS5003;66984;47.404;18.836;2023-03-30T01:54:25;17.00;16.00;7.00
77692;PMS5003;66984;47.404;18.836;2023-03-30T01:55:47;17.00;17.00;7.00
77692;PMS5003;66984;47.404;18.836;2023-03-30T01:57:08;17.75;17.25;8.00
77692;PMS5003;66984;47.404;18.836;2023-03-30T02:00:32;18.00;17.00;9.00
77692;PMS5003;66984;47.404;18.836;2023-03-30T02:01:38;17.50;17.00;10.00
77692;PMS5003;66984;47.404;18.836;2023-03-30T02:02:46;17.00;17.00;8.00
77692;PMS5003;66984;47.404;18.836;2023-03-30T02:03:55;19.00;17.00;6.00
77692;PMS5003;66984;47.404;18.836;2023-03-30T02:04:59;17.00;17.00;8.00
77692;PMS5003;66984;47.404;18.836;2023-03-30T02:06:09;20.25;16.75;8.00
77692;PMS5003;66984;47.404;18.836;2023-03-30T02:07:21;18.00;16.00;7.25
77692;PMS5003;66984;47.404;18.836;2023-03-30T02:08:29;17.00;17.00;8.00
77692;PMS5003;66984;47.404;18.836;2023-03-30T02:09:36;16.50;16.50;7.00
77692;PMS5003;66984;47.404;18.836;2023-03-30T02:10:40;16.25;16.25;7.00
77692;PMS5003;66984;47.404;18.836;2023-03-30T02:11:47;18.00;17.00;7.00
77692;PMS5003;66984;47.404;18.836;2023-03-30T02:12:52;19.00;17.00;8.00
77692;PMS5003;66984;47.404;18.836;2023-03-30T02:13:58;18.00;17.00;8.50
77692;PMS5003;66984;47.404;18.836;2023-03-30T02:15:03;17.00;17.00;8.00
77692;PMS5003;66984;47.404;18.836;2023-03-30T02:16:55;17.25;17.00;9.00
77692;PMS5003;66984;47.404;18.836;2023-03-30T02:17:44;17.00;17.00;8.00
77692;PMS5003;66984;47.404;18.836;2023-03-30T02:18:49;17.75;17.00;8.00
77692;PMS5003;66984;47.404;18.836;2023-03-30T02:19:52;18.00;17.00;8.00
77692;PMS5003;66984;47.404;18.836;2023-03-30T02:20:57;18.00;16.50;8.00
77692;PMS5003;66984;47.404;18.836;2023-03-30T02:22:03;19.00;18.00;8.00
77692;PMS5003;66984;47.404;18.836;2023-03-30T02:23:07;17.00;16.75;7.00
77692;PMS5003;66984;47.404;18.836;2023-03-30T02:24:14;17.25;15.50;8.00
77692;PMS5003;66984;47.404;18.836;2023-03-30T02:25:20;17.00;16.00;7.00
77692;PMS5003;66984;47.404;18.836;2023-03-30T02:26:24;17.00;16.00;8.00
77692;PMS5003;66984;47.404;18.836;2023-03-30T02:27:28;17.00;16.00;8.00
77692;PMS5003;66984;47.404;18.836;2023-03-30T02:28:33;18.00;16.00;8.00
77692;PMS5003;66984;47.404;18.836;2023-03-30T02:29:37;17.00;16.75;7.00
77692;PMS5003;66984;47.404;18.836;2023-03-30T02:30:44;17.00;16.50;8.00
77692;PMS5003;66984;47.404;18.836;2023-03-30T02:31:50;16.00;16.00;8.00
77692;PMS5003;66984;47.404;18.836;2023-03-30T02:32:56;15.00;15.00;5.00
77692;PMS5003;66984;47.404;18.836;2023-03-30T02:37:13;15.75;15.75;5.00
77692;PMS5003;66984;47.404;18.836;2023-03-30T02:44:58;16.00;16.00;6.50
77692;PMS5003;66984;47.404;18.836;2023-03-30T02:46:14;16.00;15.75;6.00
77692;PMS5003;66984;47.404;18.836;2023-03-30T02:48:59;15.00;13.00;6.25
77692;PMS5003;66984;47.404;18.836;2023-03-30T02:56:37;16.00;15.25;7.50
77692;PMS5003;66984;47.404;18.836;2023-03-30T02:59:29;15.00;15.00;7.00
77692;PMS5003;66984;47.404;18.836;2023-03-30T03:00:47;15.25;14.25;6.00
77692;PMS5003;66984;47.404;18.836;2023-03-30T03:02:05;15.25;15.00;6.00
77692;PMS5003;66984;47.404;18.836;2023-03-30T03:03:25;15.00;15.00;6.00
77692;PMS5003;66984;47.404;18.836;2023-03-30T03:04:36;15.00;15.00;6.75
77692;PMS5003;66984;47.404;18.836;2023-03-30T03:05:40;16.00;16.00;7.00
77692;PMS5003;66984;47.404;18.836;2023-03-30T03:06:44;14.00;13.00;5.25
77692;PMS5003;66984;47.404;18.836;2023-03-30T03:07:48;14.00;13.00;6.00
77692;PMS5003;66984;47.404;18.836;2023-03-30T03:08:52;14.00;13.00;5.00
77692;PMS5003;66984;47.404;18.836;2023-03-30T03:09:57;15.00;14.75;5.00
77692;PMS5003;66984;47.404;18.836;2023-03-30T03:10:59;16.50;16.50;7.00
77692;PMS5003;66984;47.404;18.836;2023-03-30T03:12:03;16.00;13.00;5.00
77692;PMS5003;66984;47.404;18.836;2023-03-30T03:13:07;16.50;14.50;7.00
77692;PMS5003;66984;47.404;18.836;2023-03-30T03:14:11;15.50;15.00;6.00
77692;PMS5003;66984;47.404;18.836;2023-03-30T03:15:14;14.75;14.75;5.50
77692;PMS5003;66984;47.404;18.836;2023-03-30T03:16:18;16.00;15.25;5.00
77692;PMS5003;66984;47.404;18.836;2023-03-30T03:17:21;17.00;16.00;7.00
77692;PMS5003;66984;47.404;18.836;2023-03-30T03:18:24;16.00;15.00;6.00
77692;PMS5003;66984;47.404;18.836;2023-03-30T03:19:26;16.00;15.00;8.00
77692;PMS5003;66984;47.404;18.836;2023-03-30T03:20:29;15.00;14.00;5.50
77692;PMS5003;66984;47.404;18.836;2023-03-30T03:21:32;16.00;13.00;6.00
77692;PMS5003;66984;47.404;18.836;2023-03-30T03:22:35;16.00;14.25;7.00
77692;PMS5003;66984;47.404;18.836;2023-03-30T03:23:39;16.00;15.50;7.25
77692;PMS5003;66984;47.404;18.836;2023-03-30T03:24:42;17.00;16.00;7.00
77692;PMS5003;66984;47.404;18.836;2023-03-30T03:25:46;15.75;14.75;6.25
77692;PMS5003;66984;47.404;18.836;2023-03-30T03:26:49;15.00;14.00;5.50
77692;PMS5003;66984;47.404;18.836;2023-03-30T03:27:52;16.00;14.00;5.00
77692;PMS5003;66984;47.404;18.836;2023-03-30T03:28:55;14.75;13.25;6.00
77692;PMS5003;66984;47.404;18.836;2023-03-30T03:29:58;15.50;15.50;7.00
77692;PMS5003;66984;47.404;18.836;2023-03-30T03:31:01;14.50;14.00;6.00
77692;PMS5003;66984;47.404;18.836;2023-03-30T03:32:05;15.00;15.00;5.00
77692;PMS5003;66984;47.404;18.836;2023-03-30T03:33:08;16.00;15.00;5.00
77692;PMS5003;66984;47.404;18.836;2023-03-30T03:34:11;16.00;15.00;6.00
77692;PMS5003;66984;47.404;18.836;2023-03-30T03:35:14;14.00;14.00;6.00
77692;PMS5003;66984;47.404;18.836;2023-03-30T03:36:17;15.00;14.00;6.50
77692;PMS5003;66984;47.404;18.836;2023-03-30T03:37:21;14.00;13.00;5.00
77692;PMS5003;66984;47.404;18.836;2023-03-30T03:38:24;15.25;14.25;5.00
77692;PMS5003;66984;47.404;18.836;2023-03-30T03:39:28;13.25;13.25;4.75
77692;PMS5003;66984;47.404;18.836;2023-03-30T03:40:31;14.25;12.00;5.00
77692;PMS5003;66984;47.404;18.836;2023-03-30T03:41:34;15.00;12.00;5.00
77692;PMS5003;66984;47.404;18.836;2023-03-30T03:42:37;14.00;12.00;4.00
77692;PMS5003;66984;47.404;18.836;2023-03-30T03:43:40;14.75;12.75;4.00
77692;PMS5003;66984;47.404;18.836;2023-03-30T03:44:43;15.00;13.00;4.00
77692;PMS5003;66984;47.404;18.836;2023-03-30T03:45:46;12.50;12.50;4.00
77692;PMS5003;66984;47.404;18.836;2023-03-30T03:46:50;11.75;11.00;4.00
77692;PMS5003;66984;47.404;18.836;2023-03-30T03:47:53;14.00;12.00;6.00
77692;PMS5003;66984;47.404;18.836;2023-03-30T03:48:56;14.25;13.00;7.00
77692;PMS5003;66984;47.404;18.836;2023-03-30T03:49:59;15.00;14.00;5.00
77692;PMS5003;66984;47.404;18.836;2023-03-30T03:51:05;14.00;13.00;5.00
77692;PMS5003;66984;47.404;18.836;2023-03-30T03:52:08;15.25;14.00;6.00
77692;PMS5003;66984;47.404;18.836;2023-03-30T03:53:12;15.00;14.00;5.00
77692;PMS5003;66984;47.404;18.836;2023-03-30T03:54:15;14.00;13.00;5.00
77692;PMS5003;66984;47.404;18.836;2023-03-30T03:55:17;15.00;13.00;5.00
77692;PMS5003;66984;47.404;18.836;2023-03-30T03:56:21;14.75;13.00;5.75
77692;PMS5003;66984;47.404;18.836;2023-03-30T03:57:23;15.00;14.00;5.75
77692;PMS5003;66984;47.404;18.836;2023-03-30T03:58:26;15.00;15.00;7.00
77692;PMS5003;66984;47.404;18.836;2023-03-30T03:59:30;13.75;13.75;5.25
77692;PMS5003;66984;47.404;18.836;2023-03-30T04:00:33;13.00;12.00;5.00
77692;PMS5003;66984;47.404;18.836;2023-03-30T04:01:36;15.00;14.00;7.00
77692;PMS5003;66984;47.404;18.836;2023-03-30T04:02:39;14.25;14.00;6.00
77692;PMS5003;66984;47.404;18.836;2023-03-30T04:03:43;14.00;14.00;4.00
77692;PMS5003;66984;47.404;18.836;2023-03-30T04:04:46;15.50;14.00;5.00
77692;PMS5003;66984;47.404;18.836;2023-03-30T04:05:49;15.00;15.00;5.75
77692;PMS5003;66984;47.404;18.836;2023-03-30T04:06:52;13.50;13.50;7.00
77692;PMS5003;66984;47.404;18.836;2023-03-30T04:07:55;14.00;13.00;6.00
77692;PMS5003;66984;47.404;18.836;2023-03-30T04:08:58;14.00;13.00;7.25
77692;PMS5003;66984;47.404;18.836;2023-03-30T04:10:03;15.00;14.00;6.00
77692;PMS5003;66984;47.404;18.836;2023-03-30T04:11:08;15.00;14.00;6.75
77692;PMS5003;66984;47.404;18.836;2023-03-30T04:12:13;16.00;14.00;6.00
77692;PMS5003;66984;47.404;18.836;2023-03-30T04:13:16;16.25;16.00;7.00
77692;PMS5003;66984;47.404;18.836;2023-03-30T04:14:19;16.00;16.00;6.00
77692;PMS5003;66984;47.404;18.836;2023-03-30T04:15:22;16.00;16.00;7.00
77692;PMS5003;66984;47.404;18.836;2023-03-30T04:16:25;15.00;15.00;6.00
77692;PMS5003;66984;47.404;18.836;2023-03-30T04:17:30;15.00;15.00;5.50
77692;PMS5003;66984;47.404;18.836;2023-03-30T04:18:35;16.00;14.50;5.00
77692;PMS5003;66984;47.404;18.836;2023-03-30T04:19:38;16.25;16.00;6.75
77692;PMS5003;66984;47.404;18.836;2023-03-30T04:20:43;16.00;15.00;7.00
77692;PMS5003;66984;47.404;18.836;2023-03-30T04:21:46;15.00;15.00;6.00
77692;PMS5003;66984;47.404;18.836;2023-03-30T04:22:51;14.25;14.00;4.00
77692;PMS5003;66984;47.404;18.836;2023-03-30T04:23:55;16.00;15.00;6.00
77692;PMS5003;66984;47.404;18.836;2023-03-30T04:24:58;17.00;15.00;6.00
77692;PMS5003;66984;47.404;18.836;2023-03-30T04:26:05;17.00;16.00;7.50
77692;PMS5003;66984;47.404;18.836;2023-03-30T04:27:09;17.75;16.00;6.00
77692;PMS5003;66984;47.404;18.836;2023-03-30T04:28:15;16.00;15.00;7.00
77692;PMS5003;66984;47.404;18.836;2023-03-30T04:29:23;16.00;14.00;7.25
77692;PMS5003;66984;47.404;18.836;2023-03-30T04:30:25;20.00;19.00;9.50
77692;PMS5003;66984;47.404;18.836;2023-03-30T04:31:32;20.50;19.00;8.25
77692;PMS5003;66984;47.404;18.836;2023-03-30T04:32:37;19.00;16.00;8.00
77692;PMS5003;66984;47.404;18.836;2023-03-30T04:33:40;17.00;16.00;6.75
77692;PMS5003;66984;47.404;18.836;2023-03-30T04:34:54;16.00;15.00;6.00
77692;PMS5003;66984;47.404;18.836;2023-03-30T04:35:57;20.00;18.00;9.00
77692;PMS5003;66984;47.404;18.836;2023-03-30T04:37:00;18.00;16.50;8.00
77692;PMS5003;66984;47.404;18.836;2023-03-30T04:38:03;22.75;21.50;10.25
77692;PMS5003;66984;47.404;18.836;2023-03-30T04:39:06;24.75;22.50;12.00
77692;PMS5003;66984;47.404;18.836;2023-03-30T04:40:09;20.00;16.50;9.00
77692;PMS5003;66984;47.404;18.836;2023-03-30T04:41:12;16.00;16.00;7.00
77692;PMS5003;66984;47.404;18.836;2023-03-30T04:42:15;16.50;15.75;7.75
77692;PMS5003;66984;47.404;18.836;2023-03-30T04:43:21;17.00;15.25;7.25
77692;PMS5003;66984;47.404;18.836;2023-03-30T04:44:26;25.50;24.50;12.50
77692;PMS5003;66984;47.404;18.836;2023-03-30T04:45:29;25.00;23.75;16.00
77692;PMS5003;66984;47.404;18.836;2023-03-30T04:46:32;22.25;21.00;14.00
77692;PMS5003;66984;47.404;18.836;2023-03-30T04:47:35;19.00;18.00;12.00
77692;PMS5003;66984;47.404;18.836;2023-03-30T04:48:38;26.50;24.00;15.75
77692;PMS5003;66984;47.404;18.836;2023-03-30T04:49:41;37.25;30.00;19.75
77692;PMS5003;66984;47.404;18.836;2023-03-30T04:50:44;28.00;24.25;14.50
77692;PMS5003;66984;47.404;18.836;2023-03-30T04:51:48;23.00;21.00;12.25
77692;PMS5003;66984;47.404;18.836;2023-03-30T04:52:51;20.50;19.50;10.25
77692;PMS5003;66984;47.404;18.836;2023-03-30T04:53:54;19.00;18.00;8.00
77692;PMS5003;66984;47.404;18.836;2023-03-30T04:54:57;17.00;16.50;8.00
77692;PMS5003;66984;47.404;18.836;2023-03-30T04:56:00;18.00;17.00;9.00
77692;PMS5003;66984;47.404;18.836;2023-03-30T04:57:03;18.00;16.00;8.00
77692;PMS5003;66984;47.404;18.836;2023-03-30T04:58:06;16.00;16.00;7.00
77692;PMS5003;66984;47.404;18.836;2023-03-30T04:59:09;17.75;17.00;7.00
77692;PMS5003;66984;47.404;18.836;2023-03-30T05:00:12;16.00;16.00;5.75
77692;PMS5003;66984;47.404;18.836;2023-03-30T05:01:15;16.50;15.00;7.00
77692;PMS5003;66984;47.404;18.836;2023-03-30T05:02:18;17.00;16.50;8.00
77692;PMS5003;66984;47.404;18.836;2023-03-30T05:03:21;16.00;15.00;5.00
77692;PMS5003;66984;47.404;18.836;2023-03-30T05:04:24;13.50;12.00;6.00
77692;PMS5003;66984;47.404;18.836;2023-03-30T05:05:28;13.75;13.75;5.75
77692;PMS5003;66984;47.404;18.836;2023-03-30T05:06:31;13.75;13.00;7.00
77692;PMS5003;66984;47.404;18.836;2023-03-30T05:07:34;16.50;14.50;8.00
77692;PMS5003;66984;47.404;18.836;2023-03-30T05:08:37;16.00;14.00;6.00
77692;PMS5003;66984;47.404;18.836;2023-03-30T05:09:42;16.50;15.00;8.00
77692;PMS5003;66984;47.404;18.836;2023-03-30T05:10:45;16.00;15.00;7.00
77692;PMS5003;66984;47.404;18.836;2023-03-30T05:11:48;16.50;16.50;6.00
77692;PMS5003;66984;47.404;18.836;2023-03-30T05:12:54;18.00;17.00;8.00
77692;PMS5003;66984;47.404;18.836;2023-03-30T05:13:58;16.50;16.50;8.00
77692;PMS5003;66984;47.404;18.836;2023-03-30T05:15:00;17.00;17.00;7.00
77692;PMS5003;66984;47.404;18.836;2023-03-30T05:16:03;18.00;17.00;7.00
77692;PMS5003;66984;47.404;18.836;2023-03-30T05:17:07;16.00;15.00;6.00
77692;PMS5003;66984;47.404;18.836;2023-03-30T05:18:10;16.00;16.00;7.00
77692;PMS5003;66984;47.404;18.836;2023-03-30T05:19:14;16.50;15.25;8.00
77692;PMS5003;66984;47.404;18.836;2023-03-30T05:20:17;17.00;16.50;7.00
77692;PMS5003;66984;47.404;18.836;2023-03-30T05:21:20;21.00;20.00;8.75
77692;PMS5003;66984;47.404;18.836;2023-03-30T05:22:22;17.00;16.00;8.00
77692;PMS5003;66984;47.404;18.836;2023-03-30T05:23:25;19.00;17.75;10.00
77692;PMS5003;66984;47.404;18.836;2023-03-30T05:24:28;17.00;16.00;8.75
77692;PMS5003;66984;47.404;18.836;2023-03-30T05:25:31;17.00;17.00;8.00
77692;PMS5003;66984;47.404;18.836;2023-03-30T05:26:34;19.00;18.00;8.00
77692;PMS5003;66984;47.404;18.836;2023-03-30T05:27:37;19.25;16.50;8.00
77692;PMS5003;66984;47.404;18.836;2023-03-30T05:28:40;19.50;17.00;8.00
77692;PMS5003;66984;47.404;18.836;2023-03-30T05:29:44;16.50;16.00;7.00
77692;PMS5003;66984;47.404;18.836;2023-03-30T05:30:51;20.00;18.00;8.00
77692;PMS5003;66984;47.404;18.836;2023-03-30T05:31:55;16.50;16.00;6.00
77692;PMS5003;66984;47.404;18.836;2023-03-30T05:32:57;18.00;16.25;8.00
77692;PMS5003;66984;47.404;18.836;2023-03-30T05:34:00;17.50;16.50;8.00
77692;PMS5003;66984;47.404;18.836;2023-03-30T05:35:04;16.75;16.50;7.00
77692;PMS5003;66984;47.404;18.836;2023-03-30T05:36:07;17.00;17.00;7.00
77692;PMS5003;66984;47.404;18.836;2023-03-30T05:37:11;16.50;16.50;7.00
77692;PMS5003;66984;47.404;18.836;2023-03-30T05:38:14;15.00;15.00;7.50
77692;PMS5003;66984;47.404;18.836;2023-03-30T05:39:17;16.00;15.00;7.00
77692;PMS5003;66984;47.404;18.836;2023-03-30T05:40:21;16.50;16.00;8.00
77692;PMS5003;66984;47.404;18.836;2023-03-30T05:41:24;18.00;17.00;8.00
77692;PMS5003;66984;47.404;18.836;2023-03-30T05:42:29;18.00;17.00;8.00
77692;PMS5003;66984;47.404;18.836;2023-03-30T05:43:32;16.00;16.00;7.00
77692;PMS5003;66984;47.404;18.836;2023-03-30T05:44:35;16.50;16.00;8.00
77692;PMS5003;66984;47.404;18.836;2023-03-30T05:45:38;20.00;16.50;7.25
77692;PMS5003;66984;47.404;18.836;2023-03-30T05:46:45;17.00;16.50;7.25
77692;PMS5003;66984;47.404;18.836;2023-03-30T05:47:48;16.50;16.50;7.25
77692;PMS5003;66984;47.404;18.836;2023-03-30T05:48:51;16.50;16.50;8.00
77692;PMS5003;66984;47.404;18.836;2023-03-30T05:49:54;17.00;17.00;8.00
77692;PMS5003;66984;47.404;18.836;2023-03-30T05:50:56;18.00;18.00;8.00
77692;PMS5003;66984;47.404;18.836;2023-03-30T05:52:02;19.00;17.00;6.75
77692;PMS5003;66984;47.404;18.836;2023-03-30T05:53:05;18.00;17.00;8.00
77692;PMS5003;66984;47.404;18.836;2023-03-30T05:54:09;17.00;15.00;7.75
77692;PMS5003;66984;47.404;18.836;2023-03-30T05:55:13;18.50;17.00;8.00
77692;PMS5003;66984;47.404;18.836;2023-03-30T05:56:16;19.00;17.00;8.00
77692;PMS5003;66984;47.404;18.836;2023-03-30T05:57:19;20.00;18.00;8.00
77692;PMS5003;66984;47.404;18.836;2023-03-30T05:58:22;20.00;18.00;10.00
77692;PMS5003;66984;47.404;18.836;2023-03-30T05:59:25;17.00;16.00;7.00
77692;PMS5003;66984;47.404;18.836;2023-03-30T06:00:28;17.00;17.00;8.00
77692;PMS5003;66984;47.404;18.836;2023-03-30T06:01:35;19.00;18.00;8.00
77692;PMS5003;66984;47.404;18.836;2023-03-30T06:02:38;18.00;18.00;8.00
77692;PMS5003;66984;47.404;18.836;2023-03-30T06:03:41;17.00;17.00;8.00
77692;PMS5003;66984;47.404;18.836;2023-03-30T06:04:45;18.00;17.00;8.50
77692;PMS5003;66984;47.404;18.836;2023-03-30T06:05:48;19.75;18.00;10.00
77692;PMS5003;66984;47.404;18.836;2023-03-30T06:06:51;19.25;18.25;9.25
77692;PMS5003;66984;47.404;18.836;2023-03-30T06:07:54;19.00;18.00;8.00
77692;PMS5003;66984;47.404;18.836;2023-03-30T06:08:57;20.00;19.00;8.50
77692;PMS5003;66984;47.404;18.836;2023-03-30T06:10:00;17.00;17.00;7.00
77692;PMS5003;66984;47.404;18.836;2023-03-30T06:11:03;19.75;17.75;8.50
77692;PMS5003;66984;47.404;18.836;2023-03-30T06:12:08;19.50;17.00;8.50
77692;PMS5003;66984;47.404;18.836;2023-03-30T06:13:11;20.00;17.00;8.75
77692;PMS5003;66984;47.404;18.836;2023-03-30T06:14:13;20.50;19.00;9.25
77692;PMS5003;66984;47.404;18.836;2023-03-30T06:15:17;21.00;18.50;8.50
77692;PMS5003;66984;47.404;18.836;2023-03-30T06:16:20;20.75;18.75;8.50
77692;PMS5003;66984;47.404;18.836;2023-03-30T06:17:23;18.00;17.50;9.00
77692;PMS5003;66984;47.404;18.836;2023-03-30T06:18:27;17.50;17.25;9.00
77692;PMS5003;66984;47.404;18.836;2023-03-30T06:19:30;18.00;18.00;9.00
77692;PMS5003;66984;47.404;18.836;2023-03-30T06:20:33;17.50;17.50;9.25
77692;PMS5003;66984;47.404;18.836;2023-03-30T06:21:36;19.00;19.00;11.25
77692;PMS5003;66984;47.404;18.836;2023-03-30T06:22:39;19.25;18.00;10.00
77692;PMS5003;66984;47.404;18.836;2023-03-30T06:23:46;20.00;17.25;8.25
77692;PMS5003;66984;47.404;18.836;2023-03-30T06:24:49;20.00;17.50;9.00
77692;PMS5003;66984;47.404;18.836;2023-03-30T06:25:52;21.00;20.00;10.00
77692;PMS5003;66984;47.404;18.836;2023-03-30T06:26:58;24.75;22.75;12.00
77692;PMS5003;66984;47.404;18.836;2023-03-30T06:28:03;25.25;23.75;13.00
77692;PMS5003;66984;47.404;18.836;2023-03-30T06:29:06;19.00;18.00;10.25
77692;PMS5003;66984;47.404;18.836;2023-03-30T06:30:09;21.00;19.75;9.75
77692;PMS5003;66984;47.404;18.836;2023-03-30T06:31:12;19.00;18.00;11.00
77692;PMS5003;66984;47.404;18.836;2023-03-30T06:32:15;25.00;23.00;15.25
77692;PMS5003;66984;47.404;18.836;2023-03-30T06:33:19;22.00;22.00;14.00
77692;PMS5003;66984;47.404;18.836;2023-03-30T06:34:22;21.00;21.00;13.00
77692;PMS5003;66984;47.404;18.836;2023-03-30T06:35:24;22.00;21.00;13.00
77692;PMS5003;66984;47.404;18.836;2023-03-30T06:36:27;20.00;19.00;13.00
77692;PMS5003;66984;47.404;18.836;2023-03-30T06:37:46;20.00;20.00;11.00
77692;PMS5003;66984;47.404;18.836;2023-03-30T06:38:49;21.50;20.00;10.00
77692;PMS5003;66984;47.404;18.836;2023-03-30T06:39:51;22.50;22.00;12.00
77692;PMS5003;66984;47.404;18.836;2023-03-30T06:40:55;20.75;19.00;12.00
77692;PMS5003;66984;47.404;18.836;2023-03-30T06:41:58;21.25;19.00;11.00
77692;PMS5003;66984;47.404;18.836;2023-03-30T06:43:01;20.50;20.00;11.00
77692;PMS5003;66984;47.404;18.836;2023-03-30T06:44:04;21.00;19.75;10.00
77692;PMS5003;66984;47.404;18.836;2023-03-30T06:45:08;20.00;20.00;10.25
77692;PMS5003;66984;47.404;18.836;2023-03-30T06:46:12;21.00;19.00;12.50
77692;PMS5003;66984;47.404;18.836;2023-03-30T06:47:16;22.75;22.50;13.00
77692;PMS5003;66984;47.404;18.836;2023-03-30T06:48:20;22.00;20.00;13.50
77692;PMS5003;66984;47.404;18.836;2023-03-30T06:49:25;22.50;21.75;15.00
77692;PMS5003;66984;47.404;18.836;2023-03-30T06:50:28;23.00;20.50;14.00
77692;PMS5003;66984;47.404;18.836;2023-03-30T06:51:31;22.75;22.25;14.00
77692;PMS5003;66984;47.404;18.836;2023-03-30T06:52:36;21.00;21.00;14.00
77692;PMS5003;66984;47.404;18.836;2023-03-30T06:53:39;21.75;21.00;14.00